Time;durP1;ratioP1;P1;durP2;ratioP2;P2;SDS_P1;SDS_P2;PMS_P1;PMS_P2;Temp;Humidity;BMP_temperature;BMP_pressure;BME280_temperature;BME280_humidity;BME280_pressure;Samples;Min_cycle;Max_cycle;Signal;HPM_P1;HPM_P2
2024/01/02 00:01:15;;;;;;;5.27;4.33;;;;;;;;;;4991323;28;20205;-85
2024/01/02 00:03:49;;;;;;;4.67;3.23;;;;;;;;;;4989286;28;20201;-87
2024/01/02 00:06:21;;;;;;;3.27;3.07;;;;;;;;;;4990074;28;20201;-86
2024/01/02 00:08:52;;;;;;;2.97;2.60;;;;;;;;;;4989712;28;20225;-86
2024/01/02 00:11:24;;;;;;;3.33;3.00;;;;;;;;;;4988627;28;20201;-85
2024/01/02 00:13:55;;;;;;;3.13;2.93;;;;;;;;;;4990453;28;20217;-85
2024/01/02 00:16:26;;;;;;;3.90;3.20;;;;;;;;;;4990879;28;20198;-85
2024/01/02 00:18:56;;;;;;;3.27;3.07;;;;;;;;;;4989079;28;20694;-84
2024/01/02 00:21:32;;;;;;;2.90;2.70;;;;;;;;;;4990264;28;20595;-85
2024/01/02 00:24:02;;;;;;;3.10;2.70;;;;;;;;;;4990173;28;20267;-87
2024/01/02 00:26:36;;;;;;;2.83;2.63;;;;;;;;;;4989227;28;20525;-86
2024/01/02 00:29:06;;;;;;;3.20;3.00;;;;;;;;;;4995612;28;20327;-87
2024/01/02 00:31:36;;;;;;;2.70;2.57;;;;;;;;;;5009740;28;20201;-87
2024/01/02 00:34:09;;;;;;;3.63;2.33;;;;;;;;;;5012388;28;20220;-86
2024/01/02 00:36:43;;;;;;;4.00;3.57;;;;;;;;;;5029626;28;20295;-87
2024/01/02 00:39:17;;;;;;;4.47;3.60;;;;;;;;;;5029897;28;20354;-87
2024/01/02 00:41:45;;;;;;;4.47;3.57;;;;;;;;;;5027890;28;20250;-86
2024/01/02 00:44:22;;;;;;;5.73;3.83;;;;;;;;;;5029420;28;20410;-85
2024/01/02 00:46:52;;;;;;;6.10;3.80;;;;;;;;;;5019583;28;20292;-86
2024/01/02 00:49:24;;;;;;;4.87;3.47;;;;;;;;;;5008950;28;20201;-85
2024/01/02 00:51:55;;;;;;;4.37;3.97;;;;;;;;;;5009450;28;20228;-85
2024/01/02 00:54:26;;;;;;;3.70;3.40;;;;;;;;;;5009186;28;20726;-86
2024/01/02 00:56:58;;;;;;;2.37;2.03;;;;;;;;;;5008749;28;20662;-85
2024/01/02 00:59:27;;;;;;;3.50;3.23;;;;;;;;;;4991833;28;20232;-85
2024/01/02 01:01:58;;;;;;;3.30;3.10;;;;;;;;;;5010019;28;20201;-85
2024/01/02 01:04:31;;;;;;;5.13;3.23;;;;;;;;;;5008612;28;20204;-86
2024/01/02 01:07:06;;;;;;;3.07;2.87;;;;;;;;;;5009705;28;20556;-86
2024/01/02 01:09:40;;;;;;;3.47;3.27;;;;;;;;;;5012605;28;20223;-84
2024/01/02 01:12:12;;;;;;;4.50;3.50;;;;;;;;;;5012623;28;20234;-86
2024/01/02 01:14:40;;;;;;;3.73;3.00;;;;;;;;;;5011990;28;20236;-85
2024/01/02 01:17:12;;;;;;;3.83;3.43;;;;;;;;;;5012865;28;20212;-84
2024/01/02 01:19:45;;;;;;;3.23;2.87;;;;;;;;;;5013551;28;20288;-86
2024/01/02 01:22:16;;;;;;;2.90;2.70;;;;;;;;;;5013978;28;20188;-86
2024/01/02 01:24:45;;;;;;;2.23;2.13;;;;;;;;;;5012793;28;20212;-85
2024/01/02 01:27:16;;;;;;;6.00;2.80;;;;;;;;;;5013074;28;20218;-86
2024/01/02 01:29:51;;;;;;;1.97;1.87;;;;;;;;;;5018163;28;20742;-86
2024/01/02 01:32:23;;;;;;;3.13;2.43;;;;;;;;;;5020869;28;20215;-85
2024/01/02 01:34:55;;;;;;;2.83;2.10;;;;;;;;;;5014568;28;20228;-86
2024/01/02 01:37:28;;;;;;;1.97;1.73;;;;;;;;;;5014399;28;20212;-87
2024/01/02 01:40:02;;;;;;;2.77;1.90;;;;;;;;;;5016268;28;20201;-85
2024/01/02 01:42:37;;;;;;;2.27;2.17;;;;;;;;;;5019630;28;20301;-85
2024/01/02 01:45:09;;;;;;;3.13;2.30;;;;;;;;;;5032244;28;20281;-86
2024/01/02 01:47:43;;;;;;;2.23;2.13;;;;;;;;;;5013749;28;20212;-86
2024/01/02 01:50:18;;;;;;;4.07;2.57;;;;;;;;;;5012263;28;20213;-86
2024/01/02 01:52:52;;;;;;;1.57;1.47;;;;;;;;;;5012928;28;20207;-87
2024/01/02 01:55:28;;;;;;;1.77;1.67;;;;;;;;;;5011154;28;20526;-85
2024/01/02 01:58:03;;;;;;;2.63;1.77;;;;;;;;;;5011892;28;20196;-86
2024/01/02 02:00:36;;;;;;;2.10;1.97;;;;;;;;;;5012454;28;20278;-86
2024/01/02 02:03:06;;;;;;;2.37;2.03;;;;;;;;;;5011318;28;20254;-84
2024/01/02 02:05:39;;;;;;;3.23;2.20;;;;;;;;;;5012611;28;20232;-86
2024/01/02 02:08:16;;;;;;;2.77;2.57;;;;;;;;;;5012133;28;20226;-85
2024/01/02 02:10:53;;;;;;;3.10;2.73;;;;;;;;;;5010989;28;20204;-85
2024/01/02 02:13:25;;;;;;;2.90;2.50;;;;;;;;;;5011885;28;20272;-86
2024/01/02 02:15:58;;;;;;;2.50;2.30;;;;;;;;;;5012193;28;20204;-84
2024/01/02 02:18:27;;;;;;;2.30;2.10;;;;;;;;;;5011523;28;20296;-88
2024/01/02 02:20:58;;;;;;;3.80;2.47;;;;;;;;;;5012281;28;20201;-86
2024/01/02 02:23:33;;;;;;;2.30;1.87;;;;;;;;;;5011083;28;20576;-85
2024/01/02 02:26:05;;;;;;;2.37;2.27;;;;;;;;;;5010295;28;20266;-84
2024/01/02 02:28:34;;;;;;;2.50;2.07;;;;;;;;;;5011591;28;20212;-84
2024/01/02 02:31:07;;;;;;;4.00;3.23;;;;;;;;;;4992033;28;20689;-85
2024/01/02 02:33:36;;;;;;;2.60;2.40;;;;;;;;;;5005932;28;20217;-85
2024/01/02 02:36:07;;;;;;;3.27;2.97;;;;;;;;;;5016075;28;20209;-85
2024/01/02 02:38:38;;;;;;;3.43;3.13;;;;;;;;;;5015639;28;20201;-85
2024/01/02 02:41:11;;;;;;;4.27;3.87;;;;;;;;;;5006952;28;20456;-85
2024/01/02 02:43:44;;;;;;;5.33;3.70;;;;;;;;;;5005868;28;20292;-83
2024/01/02 02:46:14;;;;;;;4.40;3.33;;;;;;;;;;4996909;28;20232;-84
2024/01/02 02:48:44;;;;;;;2.30;2.20;;;;;;;;;;4991197;28;20205;-84
2024/01/02 02:51:14;;;;;;;2.50;2.27;;;;;;;;;;4991190;28;20281;-85
2024/01/02 02:53:48;;;;;;;3.93;2.60;;;;;;;;;;4990725;28;20205;-85
2024/01/02 02:56:21;;;;;;;2.87;2.67;;;;;;;;;;4991478;28;20200;-86
2024/01/02 02:58:52;;;;;;;3.37;2.67;;;;;;;;;;4991320;28;20256;-85
2024/01/02 03:01:25;;;;;;;2.30;2.10;;;;;;;;;;4989010;28;20228;-84
2024/01/02 03:03:56;;;;;;;6.40;2.50;;;;;;;;;;4991385;28;20288;-86
2024/01/02 03:06:25;;;;;;;2.80;2.60;;;;;;;;;;4991297;28;20267;-85
2024/01/02 03:08:58;;;;;;;2.77;2.57;;;;;;;;;;4990952;28;20287;-85
2024/01/02 03:11:28;;;;;;;4.13;2.43;;;;;;;;;;4990833;28;20207;-85
2024/01/02 03:13:58;;;;;;;6.37;5.07;;;;;;;;;;4990780;28;20323;-84
2024/01/02 03:16:30;;;;;;;5.47;4.93;;;;;;;;;;4990209;28;20288;-84
2024/01/02 03:19:00;;;;;;;4.93;3.87;;;;;;;;;;4990786;28;20212;-84
2024/01/02 03:21:32;;;;;;;4.13;3.73;;;;;;;;;;4991204;28;20208;-84
2024/01/02 03:24:03;;;;;;;13.03;10.03;;;;;;;;;;4990256;28;20198;-85
2024/01/02 03:26:35;;;;;;;12.73;8.90;;;;;;;;;;4991406;28;20715;-84
2024/01/02 03:29:06;;;;;;;7.93;5.87;;;;;;;;;;4993956;28;20236;-85
2024/01/02 03:31:36;;;;;;;7.87;5.80;;;;;;;;;;5009762;28;20366;-86
2024/01/02 03:34:05;;;;;;;5.70;4.63;;;;;;;;;;5010159;28;20228;-85
2024/01/02 03:36:37;;;;;;;6.50;5.20;;;;;;;;;;5009490;28;20648;-84
2024/01/02 03:39:11;;;;;;;5.83;4.97;;;;;;;;;;5009780;28;20208;-86
2024/01/02 03:41:46;;;;;;;5.10;4.60;;;;;;;;;;5011020;28;20682;-86
2024/01/02 03:44:18;;;;;;;6.97;2.97;;;;;;;;;;5013166;28;20200;-86
2024/01/02 03:46:48;;;;;;;2.30;2.10;;;;;;;;;;5011169;28;20208;-85
2024/01/02 03:49:19;;;;;;;3.47;3.17;;;;;;;;;;5010554;28;20307;-85
2024/01/02 03:51:49;;;;;;;2.07;1.97;;;;;;;;;;5011080;28;20208;-85
2024/01/02 03:54:20;;;;;;;1.97;1.87;;;;;;;;;;5009714;28;20621;-85
2024/01/02 03:56:50;;;;;;;3.60;1.70;;;;;;;;;;5012091;28;20282;-84
2024/01/02 03:59:19;;;;;;;1.97;1.70;;;;;;;;;;5012350;28;20200;-86
2024/01/02 04:01:48;;;;;;;2.00;1.90;;;;;;;;;;5010363;28;20208;-84
2024/01/02 04:04:19;;;;;;;1.03;1.03;;;;;;;;;;5010791;28;20201;-83
2024/01/02 04:06:50;;;;;;;1.73;1.50;;;;;;;;;;5018566;28;20215;-85
2024/01/02 04:09:20;;;;;;;1.60;1.50;;;;;;;;;;5013768;28;20204;-87
2024/01/02 04:11:53;;;;;;;2.90;1.90;;;;;;;;;;5014673;28;20669;-85
2024/01/02 04:14:25;;;;;;;2.17;1.87;;;;;;;;;;5021638;28;20228;-83
2024/01/02 04:16:56;;;;;;;3.03;2.10;;;;;;;;;;5023370;28;20263;-84
2024/01/02 04:19:26;;;;;;;1.60;1.50;;;;;;;;;;5020858;28;20220;-83
2024/01/02 04:21:58;;;;;;;4.10;2.20;;;;;;;;;;5021879;28;20207;-84
2024/01/02 04:24:31;;;;;;;2.63;2.27;;;;;;;;;;5019900;28;20208;-86
2024/01/02 04:27:00;;;;;;;1.90;1.80;;;;;;;;;;5015289;28;20205;-85
2024/01/02 04:29:30;;;;;;;1.43;1.33;;;;;;;;;;5012496;28;20248;-86
2024/01/02 04:32:00;;;;;;;1.60;1.50;;;;;;;;;;5018920;28;20208;-84
2024/01/02 04:34:29;;;;;;;1.33;1.30;;;;;;;;;;5019533;28;20232;-84
2024/01/02 04:36:59;;;;;;;1.40;1.40;;;;;;;;;;5018300;28;20197;-84
2024/01/02 04:39:31;;;;;;;3.13;1.77;;;;;;;;;;5011313;28;20220;-86
2024/01/02 04:42:01;;;;;;;1.70;1.57;;;;;;;;;;5010511;28;20200;-86
2024/01/02 04:44:35;;;;;;;1.63;1.53;;;;;;;;;;5013595;28;20203;-85
2024/01/02 04:47:05;;;;;;;1.93;1.83;;;;;;;;;;5036197;28;20211;-84
2024/01/02 04:49:35;;;;;;;2.63;2.43;;;;;;;;;;5054020;28;20203;-84
2024/01/02 04:52:05;;;;;;;4.30;2.20;;;;;;;;;;5052151;28;20310;-86
2024/01/02 04:54:35;;;;;;;2.70;2.53;;;;;;;;;;5052913;28;20231;-84
2024/01/02 04:57:07;;;;;;;3.70;2.80;;;;;;;;;;5053373;28;20211;-85
2024/01/02 04:59:37;;;;;;;6.50;5.90;;;;;;;;;;5052592;28;20215;-85
2024/01/02 05:02:07;;;;;;;9.83;5.80;;;;;;;;;;5053343;28;20191;-85
2024/01/02 05:04:40;;;;;;;3.90;2.67;;;;;;;;;;5052655;28;20210;-86
2024/01/02 05:07:12;;;;;;;2.00;1.90;;;;;;;;;;5052895;28;20207;-85
2024/01/02 05:09:43;;;;;;;2.30;2.10;;;;;;;;;;5052979;28;20578;-86
2024/01/02 05:12:15;;;;;;;2.60;2.40;;;;;;;;;;5052642;28;20563;-86
2024/01/02 05:14:45;;;;;;;2.33;2.23;;;;;;;;;;5051513;28;20242;-86
2024/01/02 05:17:14;;;;;;;6.97;2.17;;;;;;;;;;5053044;28;20204;-85
2024/01/02 05:19:44;;;;;;;2.23;2.10;;;;;;;;;;5052941;28;20199;-86
2024/01/02 05:22:20;;;;;;;2.40;2.20;;;;;;;;;;5063114;28;20198;-85
2024/01/02 05:24:53;;;;;;;1.50;1.47;;;;;;;;;;5075048;28;20187;-84
2024/01/02 05:27:23;;;;;;;2.40;1.57;;;;;;;;;;5075001;28;20184;-86
2024/01/02 05:29:56;;;;;;;1.53;1.50;;;;;;;;;;5063896;28;20330;-84
2024/01/02 05:32:26;;;;;;;2.97;1.47;;;;;;;;;;5053643;28;20226;-84
2024/01/02 05:35:02;;;;;;;1.67;1.33;;;;;;;;;;5057182;28;20313;-84
2024/01/02 05:37:32;;;;;;;1.60;1.50;;;;;;;;;;5053698;28;20217;-85
2024/01/02 05:40:05;;;;;;;1.17;1.17;;;;;;;;;;5052028;28;20206;-84
2024/01/02 05:42:36;;;;;;;1.20;1.20;;;;;;;;;;5052797;28;20718;-84
2024/01/02 05:45:09;;;;;;;2.27;1.33;;;;;;;;;;5053812;28;20203;-86
2024/01/02 05:47:39;;;;;;;1.07;1.07;;;;;;;;;;5052869;28;20211;-84
2024/01/02 05:50:12;;;;;;;1.50;1.50;;;;;;;;;;5052810;28;20195;-85
2024/01/02 05:52:57;;;;;;;1.33;1.20;;;;;;;;;;5052341;28;20206;-85
2024/01/02 05:55:33;;;;;;;1.00;1.00;;;;;;;;;;5051005;28;20249;-85
2024/01/02 05:58:11;;;;;;;1.17;1.17;;;;;;;;;;5051240;28;20222;-84
2024/01/02 06:00:41;;;;;;;1.20;1.10;;;;;;;;;;5050779;28;20215;-85
2024/01/02 06:03:12;;;;;;;0.77;0.77;;;;;;;;;;5051864;28;20190;-85
2024/01/02 06:05:56;;;;;;;1.10;1.10;;;;;;;;;;5052074;28;20322;-84
2024/01/02 06:08:25;;;;;;;0.87;0.70;;;;;;;;;;5051350;28;20210;-83
2024/01/02 06:10:59;;;;;;;1.03;0.90;;;;;;;;;;5032956;28;21062;-85
2024/01/02 06:13:29;;;;;;;0.30;0.30;;;;;;;;;;5050942;28;20195;-84
2024/01/02 06:16:02;;;;;;;0.90;0.83;;;;;;;;;;5049635;28;20231;-85
2024/01/02 06:18:34;;;;;;;1.23;1.03;;;;;;;;;;5051095;28;20230;-85
2024/01/02 06:21:05;;;;;;;0.73;0.73;;;;;;;;;;5049913;28;20567;-84
2024/01/02 06:23:41;;;;;;;1.97;1.40;;;;;;;;;;5050926;28;20208;-84
2024/01/02 06:26:13;;;;;;;1.37;1.27;;;;;;;;;;5050952;28;20202;-83
2024/01/02 06:28:42;;;;;;;1.60;0.80;;;;;;;;;;5050097;28;20203;-83
2024/01/02 06:31:12;;;;;;;0.63;0.63;;;;;;;;;;5050841;28;20199;-84
2024/01/02 06:33:45;;;;;;;0.97;0.97;;;;;;;;;;5050191;28;20227;-86
2024/01/02 06:36:14;;;;;;;1.07;1.07;;;;;;;;;;5050262;28;20235;-85
2024/01/02 06:38:44;;;;;;;0.73;0.73;;;;;;;;;;5050906;28;20237;-85
2024/01/02 06:41:17;;;;;;;0.90;0.90;;;;;;;;;;5051381;28;20218;-84
2024/01/02 06:43:50;;;;;;;2.80;2.07;;;;;;;;;;5049343;28;20207;-85
2024/01/02 06:46:25;;;;;;;1.00;1.00;;;;;;;;;;5050915;28;20279;-85
2024/01/02 06:48:56;;;;;;;1.43;1.33;;;;;;;;;;5060372;28;20281;-83
2024/01/02 06:51:31;;;;;;;1.23;1.13;;;;;;;;;;5063074;28;20196;-83
2024/01/02 06:54:06;;;;;;;1.10;1.10;;;;;;;;;;5060294;28;20229;-84
2024/01/02 06:56:39;;;;;;;1.47;0.90;;;;;;;;;;5050420;28;20427;-84
2024/01/02 06:59:08;;;;;;;1.17;1.13;;;;;;;;;;5049914;28;20201;-84
2024/01/02 07:01:39;;;;;;;1.87;1.20;;;;;;;;;;5050556;28;20207;-84
2024/01/02 07:04:17;;;;;;;1.03;1.03;;;;;;;;;;5049894;28;20207;-84
2024/01/02 07:06:47;;;;;;;1.60;1.43;;;;;;;;;;5049572;28;20187;-83
2024/01/02 07:09:18;;;;;;;1.87;1.10;;;;;;;;;;5050621;28;20227;-83
2024/01/02 07:11:49;;;;;;;1.50;1.50;;;;;;;;;;5050280;28;20192;-84
2024/01/02 07:14:21;;;;;;;1.57;1.47;;;;;;;;;;5029404;28;20211;-83
2024/01/02 07:16:53;;;;;;;2.00;1.40;;;;;;;;;;5029785;28;20234;-84
2024/01/02 07:19:23;;;;;;;1.40;1.23;;;;;;;;;;5030062;28;20278;-84
2024/01/02 07:21:53;;;;;;;2.47;1.73;;;;;;;;;;5029632;28;20203;-85
2024/01/02 07:24:23;;;;;;;1.67;1.40;;;;;;;;;;5029974;28;20746;-86
2024/01/02 07:26:57;;;;;;;1.10;1.10;;;;;;;;;;5029813;28;20657;-86
2024/01/02 07:29:26;;;;;;;1.10;1.10;;;;;;;;;;5036196;28;20640;-84
2024/01/02 07:32:00;;;;;;;0.90;0.90;;;;;;;;;;5050392;28;20207;-85
2024/01/02 07:34:28;;;;;;;1.00;1.00;;;;;;;;;;5051654;28;20253;-87
2024/01/02 07:36:56;;;;;;;1.33;1.23;;;;;;;;;;5048740;28;20719;-84
2024/01/02 07:39:26;;;;;;;1.10;1.10;;;;;;;;;;5049160;28;20199;-85
2024/01/02 07:41:56;;;;;;;1.20;1.10;;;;;;;;;;5048731;28;20199;-85
2024/01/02 07:44:30;;;;;;;4.27;1.30;;;;;;;;;;5049094;28;20286;-84
2024/01/02 07:47:01;;;;;;;1.50;1.20;;;;;;;;;;5049623;28;20198;-84
2024/01/02 07:49:36;;;;;;;2.67;1.13;;;;;;;;;;5048849;28;20200;-85
2024/01/02 07:52:05;;;;;;;1.10;1.00;;;;;;;;;;5049541;28;20191;-84
2024/01/02 07:54:37;;;;;;;2.00;1.10;;;;;;;;;;5048621;28;20298;-85
2024/01/02 07:57:09;;;;;;;0.80;0.80;;;;;;;;;;5048756;28;20336;-84
2024/01/02 07:59:38;;;;;;;1.50;1.40;;;;;;;;;;5030070;28;20290;-84
2024/01/02 08:02:06;;;;;;;1.30;1.30;;;;;;;;;;5029862;28;20207;-84
2024/01/02 08:04:37;;;;;;;0.67;0.67;;;;;;;;;;5028897;28;20211;-84
2024/01/02 08:07:08;;;;;;;2.37;1.30;;;;;;;;;;5028974;28;20193;-85
2024/01/02 08:09:38;;;;;;;1.60;1.50;;;;;;;;;;5030552;28;20196;-85
2024/01/02 08:12:09;;;;;;;2.30;2.10;;;;;;;;;;5031998;28;20204;-84
2024/01/02 08:14:40;;;;;;;1.77;1.40;;;;;;;;;;5030304;28;20196;-86
2024/01/02 08:17:09;;;;;;;1.90;1.80;;;;;;;;;;5031932;28;20223;-84
2024/01/02 08:19:39;;;;;;;2.73;1.67;;;;;;;;;;5035724;28;20203;-84
2024/01/02 08:22:15;;;;;;;1.43;1.27;;;;;;;;;;5050430;28;20192;-84
2024/01/02 08:24:43;;;;;;;2.63;1.40;;;;;;;;;;5042483;28;20271;-84
2024/01/02 08:27:16;;;;;;;1.87;1.77;;;;;;;;;;5032362;28;20579;-85
2024/01/02 08:29:51;;;;;;;1.20;1.10;;;;;;;;;;5013326;28;20713;-84
2024/01/02 08:32:21;;;;;;;3.93;1.70;;;;;;;;;;5013042;28;20219;-85
2024/01/02 08:34:51;;;;;;;2.83;1.80;;;;;;;;;;5012066;28;20666;-84
2024/01/02 08:37:21;;;;;;;1.77;1.67;;;;;;;;;;5015938;28;20236;-84
2024/01/02 08:39:50;;;;;;;1.70;1.60;;;;;;;;;;5014481;28;20204;-85
2024/01/02 08:42:21;;;;;;;1.40;1.07;;;;;;;;;;5013929;28;20207;-86
2024/01/02 08:44:50;;;;;;;3.00;1.53;;;;;;;;;;5013245;28;20193;-84
2024/01/02 08:47:20;;;;;;;1.20;1.10;;;;;;;;;;5013855;28;20232;-84
2024/01/02 08:50:10;;;;;;;;;;;;;;;;;;;;;
2024/01/02 08:52:47;;;;;;;3.37;2.00;;;;;;;;;;5012719;28;20204;-85
2024/01/02 08:55:19;;;;;;;1.60;1.33;;;;;;;;;;5011785;28;20196;-85
2024/01/02 08:57:53;;;;;;;1.63;1.53;;;;;;;;;;5013795;28;20215;-86
2024/01/02 09:00:38;;;;;;;1.20;1.17;;;;;;;;;;5017889;28;20217;-85
2024/01/02 09:03:11;;;;;;;1.30;1.30;;;;;;;;;;5022616;28;20276;-85
2024/01/02 09:05:41;;;;;;;2.50;1.57;;;;;;;;;;5020190;28;20212;-84
2024/01/02 09:08:12;;;;;;;1.50;1.40;;;;;;;;;;5017949;28;20205;-83
2024/01/02 09:10:44;;;;;;;1.00;0.90;;;;;;;;;;5018712;28;20697;-85
2024/01/02 09:13:30;;;;;;;1.90;1.80;;;;;;;;;;5018855;28;20751;-85
2024/01/02 09:16:27;;;;;;;1.00;1.00;;;;;;;;;;5027081;28;20287;-85
2024/01/02 09:19:01;;;;;;;1.03;1.03;;;;;;;;;;5029086;28;20234;-84
2024/01/02 09:21:32;;;;;;;1.87;1.00;;;;;;;;;;5042535;28;20227;-87
2024/01/02 09:24:05;;;;;;;1.30;1.20;;;;;;;;;;5041282;28;20215;-85
2024/01/02 09:26:38;;;;;;;1.07;1.07;;;;;;;;;;5020485;28;20280;-84
2024/01/02 09:29:08;;;;;;;1.63;1.53;;;;;;;;;;5038837;28;20680;-84
2024/01/02 09:31:42;;;;;;;1.43;1.00;;;;;;;;;;5047582;28;20199;-85
2024/01/02 09:34:13;;;;;;;1.20;1.20;;;;;;;;;;5046356;28;20219;-85
2024/01/02 10:22:07;;;;;;;10.63;5.83;;;;;;;;;;4783570;26;20244;-85
2024/01/02 11:07:00;;;;;;;6.93;5.07;;;;;;;;;;4473331;27;17539046;-86
2024/01/02 11:12:18;;;;;;;3.07;2.47;;;;;;;;;;5091762;28;20291;-85
2024/01/02 11:15:11;;;;;;;1.97;1.77;;;;;;;;;;5098131;28;20683;-86
2024/01/02 11:17:47;;;;;;;1.73;1.60;;;;;;;;;;5093792;28;20392;-85
2024/01/02 11:20:23;;;;;;;2.37;1.83;;;;;;;;;;5099018;28;20246;-84
2024/01/02 11:23:02;;;;;;;2.20;2.00;;;;;;;;;;5093244;28;20220;-86
2024/01/02 11:25:34;;;;;;;2.30;1.63;;;;;;;;;;5077047;28;20273;-85
2024/01/02 11:28:04;;;;;;;1.87;1.80;;;;;;;;;;5069939;28;20248;-85
2024/01/02 11:30:37;;;;;;;2.00;1.80;;;;;;;;;;5076546;28;20232;-84
2024/01/02 11:33:09;;;;;;;2.30;2.10;;;;;;;;;;5062744;28;20346;-85
2024/01/02 11:35:45;;;;;;;0.83;0.83;;;;;;;;;;5055876;28;20227;-85
2024/01/02 11:38:21;;;;;;;0.90;0.90;;;;;;;;;;5057483;28;20247;-84
2024/01/02 11:41:06;;;;;;;0.73;0.73;;;;;;;;;;5060066;28;20726;-85
2024/01/02 11:43:48;;;;;;;0.83;0.83;;;;;;;;;;5079271;28;20298;-86
2024/01/02 11:46:18;;;;;;;0.93;0.93;;;;;;;;;;5070827;28;20246;-83
2024/01/02 11:48:52;;;;;;;0.70;0.70;;;;;;;;;;5066962;28;20261;-85
2024/01/02 11:54:30;;;;;;;0.90;0.90;;;;;;;;;;5071757;28;20349;-84
2024/01/02 11:57:00;;;;;;;0.60;0.60;;;;;;;;;;5076950;28;20286;-86
2024/01/02 11:59:38;;;;;;;1.10;1.10;;;;;;;;;;5070337;28;20245;-84
2024/01/02 12:02:21;;;;;;;1.23;1.10;;;;;;;;;;5076520;28;20703;-84
2024/01/02 12:04:55;;;;;;;6.47;1.40;;;;;;;;;;5072016;28;20246;-86
2024/01/02 12:07:27;;;;;;;2.00;1.00;;;;;;;;;;5077571;28;20223;-85
2024/01/02 12:10:00;;;;;;;1.60;1.27;;;;;;;;;;5067312;28;20282;-85
2024/01/02 12:12:49;;;;;;;2.83;1.23;;;;;;;;;;5072964;28;20246;-86
2024/01/02 12:15:25;;;;;;;1.77;1.10;;;;;;;;;;5064575;28;20225;-84
2024/01/02 12:18:00;;;;;;;0.80;0.80;;;;;;;;;;5051561;28;20557;-84
2024/01/02 12:20:51;;;;;;;1.37;1.37;;;;;;;;;;5053637;28;20232;-85
2024/01/02 12:23:21;;;;;;;1.57;1.47;;;;;;;;;;5056427;28;20272;-83
2024/01/02 12:28:59;;;;;;;1.40;1.40;;;;;;;;;;5062664;28;20238;-85
2024/01/02 12:34:30;;;;;;;1.40;1.37;;;;;;;;;;5051456;22;20232;-87
2024/01/02 12:37:13;;;;;;;2.13;1.83;;;;;;;;;;5020218;28;20222;-86
2024/01/02 12:42:56;;;;;;;1.17;1.10;;;;;;;;;;4999172;27;1639380;-86
2024/01/02 12:45:53;;;;;;;2.10;1.50;;;;;;;;;;5048151;28;20337;-86
2024/01/02 12:48:36;;;;;;;1.47;1.20;;;;;;;;;;5051994;28;20535;-86
2024/01/02 12:51:08;;;;;;;1.37;1.20;;;;;;;;;;5050023;28;20334;-87
2024/01/02 12:53:39;;;;;;;1.73;1.40;;;;;;;;;;5050731;28;20227;-85
2024/01/02 12:56:17;;;;;;;1.00;1.00;;;;;;;;;;5042504;28;20249;-86
2024/01/02 12:58:47;;;;;;;1.60;1.50;;;;;;;;;;5052177;28;20246;-86
2024/01/02 13:01:18;;;;;;;2.40;1.90;;;;;;;;;;5041756;28;20785;-86
2024/01/02 13:04:04;;;;;;;2.67;1.63;;;;;;;;;;5049533;28;20281;-86
2024/01/02 13:06:36;;;;;;;1.30;1.20;;;;;;;;;;5053731;28;20239;-85
2024/01/02 13:09:10;;;;;;;1.20;1.20;;;;;;;;;;5053053;28;20699;-86
2024/01/02 13:11:42;;;;;;;0.87;0.87;;;;;;;;;;5051351;28;20813;-85
2024/01/02 13:14:13;;;;;;;1.20;1.20;;;;;;;;;;5049610;28;20777;-88
2024/01/02 13:16:42;;;;;;;1.23;1.20;;;;;;;;;;5051054;28;20231;-87
2024/01/02 13:19:20;;;;;;;0.97;0.83;;;;;;;;;;5051827;28;20215;-86
2024/01/02 13:22:06;;;;;;;1.90;0.90;;;;;;;;;;5052093;28;20238;-87
2024/01/02 13:24:48;;;;;;;1.60;1.27;;;;;;;;;;5046978;28;21012;-88
2024/01/02 13:27:24;;;;;;;1.73;0.60;;;;;;;;;;5052225;28;20226;-85
2024/01/02 13:30:04;;;;;;;0.53;0.53;;;;;;;;;;5035706;28;20223;-86
2024/01/02 13:32:37;;;;;;;0.63;0.63;;;;;;;;;;5032774;28;20306;-86
2024/01/02 13:35:23;;;;;;;0.63;0.63;;;;;;;;;;5026025;28;20224;-86
2024/01/02 13:41:14;;;;;;;0.73;0.73;;;;;;;;;;5013360;28;20577;-86
2024/01/02 13:46:57;;;;;;;1.37;1.27;;;;;;;;;;5011891;28;20581;-86
2024/01/02 13:50:07;;;;;;;2.13;1.87;;;;;;;;;;5028803;28;20227;-86
2024/01/02 13:53:05;;;;;;;4.43;4.10;;;;;;;;;;5015657;28;20252;-85
2024/01/02 13:55:48;;;;;;;6.43;4.57;;;;;;;;;;5016941;28;20238;-85
2024/01/02 13:58:25;;;;;;;4.43;4.10;;;;;;;;;;5016913;28;20229;-86
2024/01/02 14:00:53;;;;;;;3.60;3.30;;;;;;;;;;5009686;28;20232;-83
2024/01/02 14:03:32;;;;;;;4.43;4.03;;;;;;;;;;5015034;28;20216;-86
2024/01/02 14:06:03;;;;;;;7.10;4.40;;;;;;;;;;5012791;28;20229;-86
2024/01/02 14:08:48;;;;;;;6.17;5.37;;;;;;;;;;5013880;28;20252;-86
2024/01/02 14:11:22;;;;;;;3.47;3.27;;;;;;;;;;4995396;28;20287;-85
2024/01/02 14:13:55;;;;;;;5.07;4.20;;;;;;;;;;4995502;28;20229;-87
2024/01/02 14:16:25;;;;;;;3.23;2.93;;;;;;;;;;4994117;28;20618;-86
2024/01/02 14:18:56;;;;;;;2.50;2.30;;;;;;;;;;4995649;28;20244;-86
2024/01/02 14:21:28;;;;;;;4.60;3.40;;;;;;;;;;4982592;28;20233;-87
2024/01/02 14:23:59;;;;;;;4.80;3.10;;;;;;;;;;4993341;28;20228;-86
2024/01/02 14:26:51;;;;;;;4.33;3.73;;;;;;;;;;4997875;28;20256;-86
2024/01/02 14:29:22;;;;;;;4.00;3.23;;;;;;;;;;4997049;28;20197;-86
2024/01/02 14:32:11;;;;;;;3.43;3.20;;;;;;;;;;4996840;28;20394;-86
2024/01/02 14:34:45;;;;;;;5.53;3.03;;;;;;;;;;4998086;28;20793;-86
2024/01/02 14:37:25;;;;;;;3.13;2.83;;;;;;;;;;4999837;28;20648;-86
2024/01/02 14:40:05;;;;;;;3.17;2.60;;;;;;;;;;4999842;28;20201;-87
2024/01/02 14:42:55;;;;;;;8.13;4.67;;;;;;;;;;4997187;28;20241;-87
2024/01/02 14:45:34;;;;;;;3.00;2.73;;;;;;;;;;4990344;28;20209;-85
2024/01/02 14:48:12;;;;;;;11.50;3.23;;;;;;;;;;4998270;28;20209;-85
2024/01/02 14:53:45;;;;;;;4.07;3.77;;;;;;;;;;4996457;28;20698;-86
2024/01/02 14:56:15;;;;;;;3.70;3.40;;;;;;;;;;5004291;28;20209;-86
2024/01/02 14:58:54;;;;;;;5.47;4.30;;;;;;;;;;4998560;28;20592;-88
2024/01/02 15:01:33;;;;;;;8.20;5.53;;;;;;;;;;4999391;28;20312;-87
2024/01/02 15:04:22;;;;;;;7.57;3.80;;;;;;;;;;5001492;28;20541;-87
2024/01/02 15:06:56;;;;;;;6.23;4.63;;;;;;;;;;5000860;28;20219;-87
2024/01/02 15:09:29;;;;;;;6.63;4.67;;;;;;;;;;4999504;28;20678;-86
2024/01/02 15:12:28;;;;;;;;;;;;;;;;;;;;;
2024/01/02 15:15:37;;;;;;;;;;;;;;;;;;;;;
2024/01/02 15:18:23;;;;;;;22.60;13.40;;;;;;;;;;4996495;28;20196;-85
2024/01/02 15:23:55;;;;;;;8.80;6.47;;;;;;;;;;5005229;28;20235;-87
2024/01/02 15:26:38;;;;;;;8.93;6.53;;;;;;;;;;5011961;28;20181;-86
2024/01/02 15:29:10;;;;;;;7.50;5.97;;;;;;;;;;5015227;28;20205;-85
2024/01/02 15:31:43;;;;;;;13.37;7.67;;;;;;;;;;5003642;28;20186;-85
2024/01/02 15:34:30;;;;;;;7.27;5.43;;;;;;;;;;4997399;28;20204;-87
2024/01/02 15:37:13;;;;;;;19.77;9.40;;;;;;;;;;4994807;28;20207;-85
2024/01/02 15:40:08;;;;;;;20.93;11.57;;;;;;;;;;4996940;28;20212;-86
2024/01/02 15:42:36;;;;;;;6.37;5.03;;;;;;;;;;4991170;28;20237;-86
2024/01/02 15:45:11;;;;;;;9.37;4.80;;;;;;;;;;5008736;28;20208;-85
2024/01/02 15:48:07;;;;;;;9.40;5.97;;;;;;;;;;5007697;28;20189;-86
2024/01/02 15:50:43;;;;;;;23.97;13.23;;;;;;;;;;4997847;28;20411;-87
2024/01/02 15:53:21;;;;;;;12.40;8.47;;;;;;;;;;4996933;28;20189;-86
2024/01/02 15:55:52;;;;;;;12.40;7.93;;;;;;;;;;4997070;28;20205;-86
2024/01/02 15:58:32;;;;;;;10.77;8.33;;;;;;;;;;4979163;28;20205;-88
2024/01/02 16:01:06;;;;;;;19.30;11.07;;;;;;;;;;4996724;28;20229;-87
2024/01/02 16:04:07;;;;;;;23.20;13.10;;;;;;;;;;4997102;28;20304;-86
2024/01/02 16:07:10;;;;;;;;;;;;;;;;;;;;;
2024/01/02 16:10:02;;;;;;;17.13;9.13;;;;;;;;;;5003662;28;20608;-86
2024/01/02 16:12:55;;;;;;;19.00;9.53;;;;;;;;;;4962830;28;20220;-87
2024/01/02 16:15:53;;;;;;;11.27;8.43;;;;;;;;;;4995548;28;20279;-88
2024/01/02 16:18:42;;;;;;;15.87;9.07;;;;;;;;;;5005378;28;20197;-85
2024/01/02 16:21:34;;;;;;;13.53;7.73;;;;;;;;;;5002746;28;20287;-85
2024/01/02 16:24:23;;;;;;;9.67;5.73;;;;;;;;;;5003335;28;20344;-87
2024/01/02 16:27:09;;;;;;;5.80;5.20;;;;;;;;;;5001861;28;20206;-86
2024/01/02 16:29:53;;;;;;;4.40;4.10;;;;;;;;;;4999080;28;20205;-87
2024/01/02 16:32:39;;;;;;;4.33;3.93;;;;;;;;;;4994298;28;20229;-87
2024/01/02 16:35:22;;;;;;;8.40;6.27;;;;;;;;;;4993928;28;20201;-86
2024/01/02 16:38:22;;;;;;;6.07;4.13;;;;;;;;;;5005398;28;20277;-84
2024/01/02 16:44:09;;;;;;;4.47;3.87;;;;;;;;;;4990099;28;20223;-87
2024/01/02 16:49:47;;;;;;;11.10;8.20;;;;;;;;;;4997394;28;20205;-85
2024/01/02 16:58:19;;;;;;;21.27;11.57;;;;;;;;;;4937907;29;20211;-87
2024/01/02 17:07:11;;;;;;;25.47;12.60;;;;;;;;;;4875913;29;20211;-86
2024/01/02 17:16:20;;;;;;;25.37;13.50;;;;;;;;;;4930529;29;20213;-87
2024/01/02 17:21:48;;;;;;;28.27;12.50;;;;;;;;;;4941505;29;20294;-87
2024/01/02 17:30:42;;;;;;;41.73;17.33;;;;;;;;;;4963651;28;20269;-87
2024/01/02 17:42:14;;;;;;;12.43;6.97;;;;;;;;;;4961750;29;20258;-87
2024/01/02 17:53:30;;;;;;;7.67;6.10;;;;;;;;;;5447968;23;20253;-87
2024/01/02 17:56:23;;;;;;;10.30;6.20;;;;;;;;;;4957713;29;20257;-86
2024/01/02 17:59:04;;;;;;;9.37;6.10;;;;;;;;;;4963667;29;20393;-87
2024/01/02 18:04:28;;;;;;;13.30;8.07;;;;;;;;;;4960778;29;20241;-86
2024/01/02 18:10:36;;;;;;;17.83;8.27;;;;;;;;;;4964886;29;20262;-88
2024/01/02 18:25:18;;;;;;;16.20;8.23;;;;;;;;;;5052571;22;20254;-85
2024/01/02 18:31:12;;;;;;;12.17;7.50;;;;;;;;;;4772367;27;8639292;-86
2024/01/02 18:39:58;;;;;;;8.17;4.57;;;;;;;;;;4494304;27;16504301;-86
2024/01/02 18:43:01;;;;;;;13.43;8.53;;;;;;;;;;5057394;28;20227;-86
2024/01/02 18:46:28;;;;;;;11.40;6.30;;;;;;;;;;5054363;28;20219;-84